Watts Mill, Alabama
Current Conditions -  °F | °C
As of 12:53 PM on Monday 22 Dec 2014 (Local Time) from KANB Reporting Station
Overcast Overcast  
Wind Chill: 52°   Ceiling: 700
Heat Index: 52°   Visibility: 10mi
Dew Point: 47°   Wind: 10mph
Humidity: 83%   Direction: 100°E
Pressure: 29.87"   Gusts: NA
Location:  33.3533°N, 85.7343°W
Report Text: KANB 221853Z AUTO 10009KT 10SM OVC007 11/08 A2987 RMK AO2 SLP118 T01110083
Loading
Personal Weather Stations






























Interactive Weather Map New forecast layout! Learn more

10-Day Weather Forecast

Advertisements
Track Severe Weather on mobile